Time;durP1;ratioP1;P1;durP2;ratioP2;P2;SDS_P1;SDS_P2;PMS_P1;PMS_P2;Temp;Humidity;BMP_temperature;BMP_pressure;BME280_temperature;BME280_humidity;BME280_pressure;Samples;Min_cycle;Max_cycle;Signal;HPM_P1;HPM_P2
2024/04/01 00:00:39;;;;;;;4.00;1.10;;;12.70;99.90;;;;;;4974617;28;20069;-82
2024/04/01 00:03:04;;;;;;;5.28;1.33;;;12.70;99.90;;;;;;4972977;28;20031;-83
2024/04/01 00:05:30;;;;;;;6.28;1.08;;;12.80;99.90;;;;;;4972026;28;20387;-82
2024/04/01 00:07:56;;;;;;;6.18;1.33;;;12.80;99.90;;;;;;4973257;28;20035;-82
2024/04/01 00:10:25;;;;;;;4.07;1.98;;;12.80;99.90;;;;;;4955959;28;20085;-82
2024/04/01 00:12:51;;;;;;;5.20;1.20;;;12.80;99.90;;;;;;4972179;28;20023;-82
2024/04/01 00:15:18;;;;;;;5.65;1.20;;;12.80;99.90;;;;;;4972144;28;20041;-83
2024/04/01 00:17:44;;;;;;;7.47;1.00;;;12.90;99.90;;;;;;4956833;28;20168;-82
2024/04/01 00:20:10;;;;;;;3.95;1.17;;;12.90;99.90;;;;;;4974013;28;20546;-82
2024/04/01 00:22:35;;;;;;;4.47;0.95;;;13.00;99.90;;;;;;4974468;28;20049;-82
2024/04/01 00:25:01;;;;;;;4.82;1.20;;;13.00;99.90;;;;;;4973113;28;20094;-82
2024/04/01 00:27:26;;;;;;;6.25;1.10;;;13.00;99.90;;;;;;4973343;28;20060;-82
2024/04/01 00:29:52;;;;;;;7.97;1.13;;;13.00;99.90;;;;;;4972426;28;20038;-83
2024/04/01 00:32:17;;;;;;;4.07;1.20;;;13.10;99.90;;;;;;4974432;28;20041;-82
2024/04/01 00:34:44;;;;;;;3.60;1.10;;;13.00;99.90;;;;;;4973938;28;20110;-82
2024/04/01 00:37:10;;;;;;;6.72;1.10;;;13.00;99.90;;;;;;4971460;28;20026;-82
2024/04/01 00:39:35;;;;;;;9.43;1.92;;;13.00;99.90;;;;;;4973232;28;20118;-82
2024/04/01 00:42:01;;;;;;;3.95;1.10;;;12.90;99.90;;;;;;4972513;28;20038;-82
2024/04/01 00:44:27;;;;;;;4.57;1.20;;;12.90;99.90;;;;;;4971686;28;20761;-83
2024/04/01 00:46:53;;;;;;;5.05;0.90;;;12.90;99.90;;;;;;4971827;28;20138;-82
2024/04/01 00:49:20;;;;;;;7.05;1.23;;;12.90;99.90;;;;;;4971900;28;20073;-82
2024/04/01 00:51:46;;;;;;;5.50;0.90;;;12.80;99.90;;;;;;4973112;28;20038;-83
2024/04/01 00:54:13;;;;;;;5.28;1.10;;;12.90;99.90;;;;;;4972823;28;20086;-82
2024/04/01 00:56:43;;;;;;;5.72;1.58;;;12.80;99.90;;;;;;4974444;28;20047;-83
2024/04/01 00:59:08;;;;;;;8.10;1.75;;;12.80;99.90;;;;;;4974700;28;20834;-83
2024/04/01 01:01:34;;;;;;;2.70;0.88;;;12.80;99.90;;;;;;4975193;28;20031;-82
2024/04/01 01:04:02;;;;;;;8.07;1.13;;;12.80;99.90;;;;;;4973789;28;20108;-82
2024/04/01 01:06:29;;;;;;;7.20;1.33;;;12.80;99.90;;;;;;4972062;28;20027;-82
2024/04/01 01:08:56;;;;;;;7.93;1.10;;;12.80;99.90;;;;;;4972485;28;20054;-82
2024/04/01 01:11:21;;;;;;;3.88;0.98;;;12.80;99.90;;;;;;4973122;28;20035;-82
2024/04/01 01:13:47;;;;;;;2.53;0.82;;;12.90;99.90;;;;;;4974260;28;20066;-83
2024/04/01 01:16:13;;;;;;;4.05;0.82;;;12.90;99.90;;;;;;4972205;28;20538;-82
2024/04/01 01:18:38;;;;;;;4.28;0.88;;;12.90;99.90;;;;;;4973305;28;20041;-82
2024/04/01 01:21:04;;;;;;;4.00;0.90;;;12.90;99.90;;;;;;4973746;28;20042;-82
2024/04/01 01:23:29;;;;;;;6.80;1.13;;;12.90;99.90;;;;;;4973389;28;20037;-82
2024/04/01 01:25:55;;;;;;;4.07;1.10;;;12.90;99.90;;;;;;4972062;28;20410;-82
2024/04/01 01:28:21;;;;;;;3.90;0.90;;;12.90;99.90;;;;;;4974318;28;20031;-82
2024/04/01 01:30:47;;;;;;;4.75;1.40;;;12.90;99.90;;;;;;4972647;28;20039;-83
2024/04/01 01:33:13;;;;;;;2.92;1.00;;;12.90;99.90;;;;;;4975859;28;20106;-82
2024/04/01 01:35:39;;;;;;;4.35;1.10;;;13.00;99.90;;;;;;4972137;28;20035;-83
2024/04/01 01:38:05;;;;;;;5.80;0.98;;;13.00;99.90;;;;;;4972884;28;20046;-83
2024/04/01 01:40:31;;;;;;;5.95;1.17;;;13.00;99.90;;;;;;4973108;28;20450;-82
2024/04/01 01:42:57;;;;;;;5.47;0.95;;;13.10;99.90;;;;;;4974256;28;20749;-83
2024/04/01 01:45:22;;;;;;;3.85;0.85;;;13.10;99.90;;;;;;4971847;28;20023;-83
2024/04/01 01:47:48;;;;;;;2.15;0.73;;;13.10;99.90;;;;;;4973471;28;20030;-82
2024/04/01 01:50:13;;;;;;;2.40;0.60;;;13.10;99.90;;;;;;4977350;28;20048;-82
2024/04/01 01:52:39;;;;;;;3.25;1.20;;;13.00;99.90;;;;;;4977670;28;20126;-82
2024/04/01 01:55:05;;;;;;;3.85;0.73;;;13.00;99.90;;;;;;4975496;28;20034;-83
2024/04/01 01:57:32;;;;;;;4.35;0.77;;;13.00;99.90;;;;;;4976065;28;20530;-83
2024/04/01 01:59:58;;;;;;;4.65;0.90;;;12.90;99.90;;;;;;4975665;28;20034;-83
2024/04/01 02:02:24;;;;;;;5.95;0.95;;;12.90;99.90;;;;;;4958954;28;20041;-82
2024/04/01 02:04:50;;;;;;;4.22;0.93;;;12.90;99.90;;;;;;4975651;28;20030;-83
2024/04/01 02:07:16;;;;;;;2.60;0.90;;;12.90;99.90;;;;;;4975721;28;20027;-83
2024/04/01 02:09:42;;;;;;;3.42;1.00;;;12.90;99.90;;;;;;4976541;28;20075;-82
2024/04/01 02:12:07;;;;;;;3.13;0.88;;;12.90;99.90;;;;;;4976765;28;20036;-83
2024/04/01 02:14:34;;;;;;;6.97;1.00;;;12.90;99.90;;;;;;4974340;28;20031;-83
2024/04/01 02:16:59;;;;;;;3.10;0.95;;;12.90;99.90;;;;;;4974351;28;20062;-82
2024/04/01 02:19:25;;;;;;;2.38;0.90;;;13.00;99.90;;;;;;4974386;28;20035;-82
2024/04/01 02:21:50;;;;;;;5.20;1.00;;;13.00;99.90;;;;;;4976600;28;20047;-83
2024/04/01 02:24:17;;;;;;;1.75;0.90;;;13.00;99.90;;;;;;4974290;28;20113;-83
2024/04/01 02:26:53;;;;;;;3.83;0.98;;;13.00;99.90;;;;;;4976071;28;20116;-83
2024/04/01 02:29:19;;;;;;;3.58;0.80;;;13.00;99.90;;;;;;4975690;28;20038;-82
2024/04/01 02:31:44;;;;;;;2.33;0.75;;;13.00;99.90;;;;;;4957830;28;20058;-83
2024/04/01 02:34:10;;;;;;;2.03;0.90;;;13.00;99.90;;;;;;4976891;28;20041;-83
2024/04/01 02:36:38;;;;;;;3.92;0.95;;;13.10;99.90;;;;;;4975377;28;20065;-82
2024/04/01 02:39:05;;;;;;;8.40;1.23;;;13.10;99.90;;;;;;4975960;28;20843;-83
2024/04/01 02:41:31;;;;;;;1.33;0.70;;;13.10;99.90;;;;;;4975165;28;20047;-82
2024/04/01 02:43:56;;;;;;;5.65;1.02;;;13.10;99.90;;;;;;4976078;28;20216;-82
2024/04/01 02:46:22;;;;;;;5.03;1.00;;;13.10;99.90;;;;;;4975869;28;20031;-83
2024/04/01 02:48:48;;;;;;;3.35;1.08;;;13.10;99.90;;;;;;4976710;28;20526;-83
2024/04/01 02:51:14;;;;;;;3.78;0.98;;;13.10;99.90;;;;;;4978117;28;20117;-83
2024/04/01 02:53:47;;;;;;;4.68;1.45;;;13.10;99.90;;;;;;4977081;28;20031;-83
2024/04/01 02:56:16;;;;;;;6.28;1.10;;;13.10;99.90;;;;;;4976257;28;20525;-82
2024/04/01 02:58:43;;;;;;;5.75;1.20;;;13.00;99.90;;;;;;4975241;28;20035;-83
2024/04/01 03:01:10;;;;;;;6.63;1.02;;;13.00;99.90;;;;;;4976758;28;20123;-82
2024/04/01 03:03:35;;;;;;;5.35;1.17;;;13.00;99.90;;;;;;4975535;28;20035;-83
2024/04/01 03:06:01;;;;;;;7.78;1.40;;;13.00;99.90;;;;;;4976204;28;20043;-83
2024/04/01 03:08:27;;;;;;;4.35;1.00;;;13.00;99.90;;;;;;4976431;28;20307;-83
2024/04/01 03:11:02;;;;;;;6.57;1.27;;;12.90;99.90;;;;;;4975454;28;20049;-82
2024/04/01 03:13:29;;;;;;;4.53;1.10;;;12.90;99.90;;;;;;4974873;28;20411;-83
2024/04/01 03:15:56;;;;;;;8.02;1.20;;;12.90;99.90;;;;;;4974092;28;20030;-82
2024/04/01 03:18:23;;;;;;;5.97;1.13;;;12.80;99.90;;;;;;4975429;28;20114;-82
2024/04/01 03:20:49;;;;;;;5.55;1.20;;;12.80;99.90;;;;;;4976358;28;20031;-82
2024/04/01 03:23:15;;;;;;;8.63;1.30;;;12.70;99.90;;;;;;4975949;28;20035;-82
2024/04/01 03:25:41;;;;;;;5.10;1.50;;;12.70;99.90;;;;;;4975663;28;20038;-82
2024/04/01 03:28:07;;;;;;;8.43;1.73;;;12.60;99.90;;;;;;4976166;28;20062;-82
2024/04/01 03:30:34;;;;;;;5.72;1.33;;;12.60;99.90;;;;;;4977307;28;20062;-82
2024/04/01 03:33:00;;;;;;;8.55;1.30;;;12.50;99.90;;;;;;4975549;28;20027;-82
2024/04/01 03:35:26;;;;;;;4.95;1.08;;;12.50;99.90;;;;;;4973630;28;20077;-82
2024/04/01 03:37:51;;;;;;;5.25;1.48;;;12.40;99.90;;;;;;4974690;28;20978;-82
2024/04/01 03:40:17;;;;;;;5.60;1.30;;;12.40;99.90;;;;;;4974656;28;20065;-82
2024/04/01 03:42:43;;;;;;;7.82;1.55;;;12.30;99.90;;;;;;4958451;28;20037;-82
2024/04/01 03:45:08;;;;;;;9.77;1.65;;;12.30;99.90;;;;;;4974422;28;20048;-82
2024/04/01 03:47:34;;;;;;;5.50;1.52;;;12.30;99.90;;;;;;4973907;28;20094;-82
2024/04/01 03:49:59;;;;;;;2.95;1.08;;;12.30;99.90;;;;;;4973637;28;20039;-82
2024/04/01 03:52:25;;;;;;;5.22;1.10;;;12.30;99.90;;;;;;4973782;28;20036;-82
2024/04/01 03:54:51;;;;;;;8.10;1.23;;;12.40;99.90;;;;;;4973467;28;20054;-82
2024/04/01 03:57:17;;;;;;;5.28;1.23;;;12.40;99.90;;;;;;4972683;28;20061;-83
2024/04/01 03:59:43;;;;;;;6.28;1.40;;;12.40;99.90;;;;;;4972102;28;20038;-83
2024/04/01 04:02:10;;;;;;;7.88;1.45;;;12.40;99.90;;;;;;4957540;28;20085;-83
2024/04/01 04:04:35;;;;;;;6.15;1.40;;;12.50;99.90;;;;;;4972716;28;20749;-82
2024/04/01 04:07:01;;;;;;;4.70;1.10;;;12.50;99.90;;;;;;4972987;28;20129;-83
2024/04/01 04:09:27;;;;;;;5.40;1.50;;;12.50;99.90;;;;;;4973624;28;20066;-82
2024/04/01 04:11:52;;;;;;;10.07;1.63;;;12.60;99.90;;;;;;4973781;28;20046;-82
2024/04/01 04:14:20;;;;;;;10.98;1.88;;;12.60;99.90;;;;;;4972833;28;20030;-82
2024/04/01 04:16:46;;;;;;;5.68;1.20;;;12.60;99.90;;;;;;4974648;28;20062;-83
2024/04/01 04:19:13;;;;;;;5.75;1.48;;;12.70;99.90;;;;;;4975051;28;20022;-82
2024/04/01 04:21:38;;;;;;;7.90;1.15;;;12.70;99.90;;;;;;4974594;28;20027;-82
2024/04/01 04:24:04;;;;;;;9.27;1.60;;;12.60;99.90;;;;;;4975167;28;20818;-83
2024/04/01 04:26:30;;;;;;;7.22;1.38;;;12.60;99.90;;;;;;4955981;28;20031;-82
2024/04/01 04:28:56;;;;;;;3.65;1.83;;;12.60;99.90;;;;;;4976435;28;20030;-83
2024/04/01 04:31:21;;;;;;;5.25;1.00;;;12.60;99.90;;;;;;4973313;28;20058;-83
2024/04/01 04:33:47;;;;;;;6.40;1.10;;;12.60;99.90;;;;;;4974792;28;20116;-83
2024/04/01 04:36:13;;;;;;;5.97;1.05;;;12.60;99.90;;;;;;4973264;28;20035;-83
2024/04/01 04:38:38;;;;;;;6.32;1.67;;;12.60;99.90;;;;;;4975772;28;20032;-83
2024/04/01 04:41:04;;;;;;;6.82;1.00;;;12.60;99.90;;;;;;4976365;28;20027;-83
2024/04/01 04:43:31;;;;;;;4.88;0.88;;;12.60;99.90;;;;;;4957146;28;20026;-83
2024/04/01 04:45:57;;;;;;;5.50;1.10;;;12.60;99.90;;;;;;4974031;28;21144;-83
2024/04/01 04:48:22;;;;;;;6.03;1.35;;;12.60;99.90;;;;;;4975269;28;20054;-83
2024/04/01 04:50:48;;;;;;;4.63;1.00;;;12.50;99.90;;;;;;4975494;28;20070;-83
2024/04/01 04:53:13;;;;;;;6.78;1.20;;;12.60;99.90;;;;;;4975366;28;20037;-84
2024/04/01 04:55:40;;;;;;;8.07;1.40;;;12.50;99.90;;;;;;4974117;28;20122;-83
2024/04/01 04:58:05;;;;;;;5.38;1.08;;;12.50;99.90;;;;;;4957934;28;20057;-83
2024/04/01 05:00:31;;;;;;;5.40;1.00;;;12.50;99.90;;;;;;4975372;28;20042;-83
2024/04/01 05:02:56;;;;;;;4.75;1.10;;;12.50;99.90;;;;;;4975044;28;20051;-83
2024/04/01 05:05:23;;;;;;;6.30;1.58;;;12.50;99.90;;;;;;4974467;28;20029;-83
2024/04/01 05:07:49;;;;;;;4.43;1.10;;;12.50;99.90;;;;;;4957727;28;20062;-83
2024/04/01 05:10:15;;;;;;;4.70;1.67;;;12.40;99.90;;;;;;4975385;28;20034;-82
2024/04/01 05:12:42;;;;;;;6.60;1.40;;;12.40;99.90;;;;;;4973520;28;20031;-83
2024/04/01 05:15:08;;;;;;;6.88;1.35;;;12.50;99.90;;;;;;4974751;28;20027;-83
2024/04/01 05:17:34;;;;;;;5.70;1.60;;;12.50;99.90;;;;;;4958338;28;20034;-83
2024/04/01 05:20:00;;;;;;;3.22;1.15;;;12.40;99.90;;;;;;4975879;28;20034;-83
2024/04/01 05:22:26;;;;;;;7.72;1.33;;;12.40;99.90;;;;;;4975414;28;20081;-83
2024/04/01 05:24:52;;;;;;;4.70;1.90;;;12.40;99.90;;;;;;4976407;28;20105;-84
2024/04/01 05:27:18;;;;;;;5.40;1.15;;;12.40;99.90;;;;;;4974344;28;20022;-83
2024/04/01 05:29:43;;;;;;;2.88;1.08;;;12.40;99.90;;;;;;4975005;28;20050;-83
2024/04/01 05:32:09;;;;;;;9.27;1.70;;;12.40;99.90;;;;;;4975819;28;20054;-83
2024/04/01 05:34:37;;;;;;;6.50;2.38;;;12.40;99.90;;;;;;4975159;28;20034;-83
2024/04/01 05:37:05;;;;;;;6.65;2.15;;;12.40;99.90;;;;;;4975512;28;20022;-83
2024/04/01 05:39:31;;;;;;;7.85;1.80;;;12.40;99.90;;;;;;4975868;28;20499;-83
2024/04/01 05:41:56;;;;;;;5.75;1.35;;;12.30;99.90;;;;;;4975106;28;20042;-83
2024/04/01 05:44:22;;;;;;;3.70;1.33;;;12.30;99.90;;;;;;4975993;28;20594;-83
2024/04/01 05:46:47;;;;;;;6.32;1.15;;;12.40;99.90;;;;;;4972719;28;20039;-84
2024/04/01 05:49:13;;;;;;;8.65;1.40;;;12.40;99.90;;;;;;4973988;28;20054;-83
2024/04/01 05:51:38;;;;;;;1.85;0.90;;;12.40;99.90;;;;;;4975218;28;20048;-83
2024/04/01 05:54:04;;;;;;;5.07;1.00;;;12.40;99.90;;;;;;4974406;28;20089;-84
2024/04/01 05:56:30;;;;;;;10.02;2.80;;;12.40;99.90;;;;;;4974321;28;20041;-83
2024/04/01 05:58:55;;;;;;;11.25;3.10;;;12.40;99.90;;;;;;4973686;28;20031;-84
2024/04/01 06:01:21;;;;;;;6.78;1.75;;;12.40;99.90;;;;;;4974781;28;20114;-84
2024/04/01 06:03:46;;;;;;;3.17;1.00;;;12.40;99.90;;;;;;4973591;28;20372;-83
2024/04/01 06:06:12;;;;;;;4.65;1.10;;;12.40;99.90;;;;;;4972466;28;20125;-83
2024/04/01 06:08:38;;;;;;;4.35;1.20;;;12.40;99.90;;;;;;4974194;28;20054;-83
2024/04/01 06:11:03;;;;;;;6.88;1.40;;;12.40;99.90;;;;;;4955110;28;20042;-85
2024/04/01 06:13:30;;;;;;;3.55;1.10;;;12.40;99.90;;;;;;4972376;28;20086;-84
2024/04/01 06:15:55;;;;;;;6.80;1.27;;;12.40;99.90;;;;;;4971724;28;20114;-84
2024/04/01 06:18:22;;;;;;;6.45;1.52;;;12.40;99.90;;;;;;4969023;28;20118;-82
2024/04/01 06:20:48;;;;;;;3.83;1.10;;;12.40;99.90;;;;;;4984101;28;20053;-83
2024/04/01 06:23:14;;;;;;;4.82;1.27;;;12.40;99.90;;;;;;4984472;28;20114;-82
2024/04/01 06:25:42;;;;;;;3.72;1.83;;;12.40;99.90;;;;;;4981918;28;20229;-82
2024/04/01 06:28:08;;;;;;;4.53;1.10;;;12.40;99.90;;;;;;4955400;28;20047;-84
2024/04/01 06:30:34;;;;;;;4.65;1.40;;;12.40;99.90;;;;;;4974992;28;20047;-83
2024/04/01 06:33:00;;;;;;;3.03;1.02;;;12.50;99.90;;;;;;4974887;28;20046;-84
2024/04/01 06:35:26;;;;;;;5.55;1.35;;;12.50;99.90;;;;;;4975930;28;20043;-84
2024/04/01 06:37:51;;;;;;;6.78;1.30;;;12.60;99.90;;;;;;4975620;28;20085;-84
2024/04/01 06:40:17;;;;;;;6.63;1.20;;;12.60;99.90;;;;;;4973696;28;20045;-85
2024/04/01 06:42:43;;;;;;;9.48;1.52;;;12.60;99.90;;;;;;4977503;28;20403;-86
2024/04/01 06:45:09;;;;;;;3.70;1.10;;;12.70;99.90;;;;;;4972306;28;20042;-86
2024/04/01 06:47:34;;;;;;;5.70;1.20;;;12.70;99.90;;;;;;4971599;28;20054;-86
2024/04/01 06:50:00;;;;;;;7.88;1.35;;;12.80;99.90;;;;;;4972909;28;20395;-85
2024/04/01 06:52:25;;;;;;;3.78;1.42;;;12.80;99.90;;;;;;4956531;28;20037;-85
2024/04/01 06:54:52;;;;;;;7.38;1.40;;;12.90;99.90;;;;;;4971994;28;20519;-85
2024/04/01 06:57:18;;;;;;;2.47;0.75;;;13.00;99.90;;;;;;4971665;28;20054;-85
2024/04/01 06:59:43;;;;;;;3.17;0.60;;;13.20;99.90;;;;;;4973129;28;20553;-85
2024/04/01 07:02:09;;;;;;;2.20;0.65;;;13.30;99.90;;;;;;4972236;28;21334;-84
2024/04/01 07:04:35;;;;;;;2.65;0.60;;;13.50;99.90;;;;;;4970724;28;20106;-84
2024/04/01 07:07:00;;;;;;;1.58;0.50;;;13.70;99.90;;;;;;4973406;28;20030;-86
2024/04/01 07:09:26;;;;;;;1.92;0.43;;;13.80;99.90;;;;;;4972990;28;20027;-85
2024/04/01 07:11:51;;;;;;;2.25;0.70;;;14.00;99.90;;;;;;4969694;28;20036;-86
2024/04/01 07:14:17;;;;;;;3.67;0.60;;;14.10;99.90;;;;;;4967052;28;20122;-87
2024/04/01 07:16:43;;;;;;;2.25;0.73;;;14.30;99.90;;;;;;4965908;28;20061;-87
2024/04/01 07:19:08;;;;;;;12.52;0.80;;;14.50;99.90;;;;;;4966859;28;20038;-88
2024/04/01 07:21:34;;;;;;;12.68;1.10;;;14.60;99.90;;;;;;4965271;28;20130;-86
2024/04/01 07:23:59;;;;;;;11.48;1.00;;;14.70;99.90;;;;;;4967548;28;20141;-86
2024/04/01 07:26:25;;;;;;;1.60;0.50;;;14.60;99.90;;;;;;4948633;28;20027;-86
2024/04/01 07:28:50;;;;;;;8.23;0.90;;;14.30;99.90;;;;;;4966269;28;20032;-86
2024/04/01 07:31:16;;;;;;;5.82;0.90;;;14.20;99.90;;;;;;4967867;28;20045;-87
2024/04/01 07:33:42;;;;;;;6.07;1.10;;;14.00;99.90;;;;;;4967269;28;20038;-86
2024/04/01 07:36:07;;;;;;;6.57;1.63;;;13.70;99.90;;;;;;4967446;28;20034;-86
2024/04/01 07:38:33;;;;;;;3.60;1.02;;;13.60;99.90;;;;;;4966101;28;20045;-86
2024/04/01 07:40:58;;;;;;;2.22;0.82;;;13.40;99.90;;;;;;4970043;28;20050;-83
2024/04/01 07:43:25;;;;;;;2.25;0.60;;;13.10;99.90;;;;;;4970939;28;20023;-85
2024/04/01 07:45:51;;;;;;;8.23;0.80;;;13.00;99.90;;;;;;4970814;28;20026;-85
2024/04/01 07:48:17;;;;;;;2.78;0.60;;;12.80;99.90;;;;;;4977528;28;20027;-83
2024/04/01 07:50:43;;;;;;;2.78;0.60;;;12.60;99.90;;;;;;4974526;28;20043;-83
2024/04/01 07:53:10;;;;;;;2.20;0.60;;;12.40;99.90;;;;;;4973992;28;20057;-83
2024/04/01 07:55:35;;;;;;;7.43;0.80;;;12.30;99.90;;;;;;4975716;28;20046;-84
2024/04/01 07:58:01;;;;;;;3.05;0.50;;;12.20;99.90;;;;;;4974234;28;20042;-83
2024/04/01 08:00:26;;;;;;;2.73;0.53;;;11.90;99.90;;;;;;4970888;28;20129;-84
2024/04/01 08:02:52;;;;;;;4.93;0.73;;;11.80;99.90;;;;;;4965172;28;20045;-86
2024/04/01 15:44:27;;;;;;;;;;;10.60;99.90;;;;;;5993166;23;20051;-71
2024/04/01 19:27:46;;;;;;;;;;;8.50;99.90;;;;;;3050407;23;19921;-82
2024/04/01 21:04:09;;;;;;;;;;;7.80;99.90;;;;;;4991536;28;19909;-87
2024/04/01 21:06:34;;;;;;;;;;;7.70;99.90;;;;;;4997302;28;19924;-88
2024/04/01 21:09:00;;;;;;;;;;;7.70;99.90;;;;;;4978164;28;19918;-86
2024/04/01 21:11:25;;;;;;;;;;;7.70;99.90;;;;;;4997637;28;19940;-87
2024/04/01 21:13:53;;;;;;;;;;;7.60;99.90;;;;;;4979453;28;20505;-87
2024/04/01 21:16:18;;;;;;;;;;;7.70;99.90;;;;;;4994621;28;19948;-87
2024/04/01 21:18:44;;;;;;;;;;;7.70;99.90;;;;;;4994117;28;19983;-87
2024/04/01 21:21:10;;;;;;;;;;;7.70;99.90;;;;;;4993847;28;19917;-88
2024/04/01 21:23:36;;;;;;;;;;;7.70;99.90;;;;;;4976292;28;19914;-88
2024/04/01 21:26:03;;;;;;;;;;;7.70;99.90;;;;;;4996430;28;21316;-88
2024/04/01 21:28:29;;;;;;;;;;;7.70;99.90;;;;;;4995372;28;20826;-88
2024/04/01 21:30:55;;;;;;;;;;;7.70;99.90;;;;;;4995149;28;19929;-87
2024/04/01 21:33:20;;;;;;;;;;;7.80;99.90;;;;;;4995986;28;19968;-88
2024/04/01 21:35:45;;;;;;;;;;;7.80;99.90;;;;;;4996337;28;19914;-88
2024/04/01 21:38:11;;;;;;;;;;;7.80;99.90;;;;;;4996318;28;19936;-88
2024/04/01 21:40:36;;;;;;;;;;;7.80;99.90;;;;;;4994543;28;19952;-87
2024/04/01 21:43:02;;;;;;;;;;;7.90;99.90;;;;;;4994485;28;19917;-88
2024/04/01 21:45:28;;;;;;;;;;;7.90;99.90;;;;;;4994419;28;19924;-87
2024/04/01 21:47:53;;;;;;;;;;;7.90;99.90;;;;;;4993361;28;19925;-87
2024/04/01 21:50:20;;;;;;;;;;;8.00;99.90;;;;;;4994918;28;19918;-87
2024/04/01 21:52:46;;;;;;;;;;;8.00;99.90;;;;;;4994537;28;19925;-88
2024/04/01 21:55:11;;;;;;;;;;;8.00;99.90;;;;;;4995320;28;19921;-88
2024/04/01 21:57:38;;;;;;;;;;;8.00;99.90;;;;;;4974205;28;19914;-87
2024/04/01 22:02:48;;;;;;;;;;;8.00;99.90;;;;;;4993764;28;19948;-88
2024/04/01 22:05:13;;;;;;;;;;;8.00;99.90;;;;;;4995272;28;19913;-88
2024/04/01 22:07:39;;;;;;;;;;;8.00;99.90;;;;;;4980608;28;20392;-88
2024/04/01 22:10:06;;;;;;;;;;;8.10;99.90;;;;;;4998321;28;19972;-88
2024/04/01 22:12:35;;;;;;;;;;;8.10;99.90;;;;;;4979970;28;19916;-88
2024/04/01 22:15:01;;;;;;;;;;;8.00;99.90;;;;;;4997822;28;20003;-88
2024/04/01 22:17:27;;;;;;;;;;;8.00;99.90;;;;;;5004715;28;19920;-86
2024/04/01 22:19:52;;;;;;;;;;;8.00;99.90;;;;;;5001658;28;19917;-88
2024/04/01 22:22:18;;;;;;;;;;;8.00;99.90;;;;;;5000803;28;19918;-88
2024/04/01 22:24:44;;;;;;;;;;;8.00;99.90;;;;;;5000761;28;19917;-89
2024/04/01 22:27:09;;;;;;;;;;;8.10;99.90;;;;;;4997844;28;19917;-87
2024/04/01 22:29:35;;;;;;;;;;;8.10;99.90;;;;;;4996719;28;20001;-88
2024/04/01 22:32:00;;;;;;;;;;;8.00;99.90;;;;;;4996716;28;20046;-87
2024/04/01 22:34:26;;;;;;;;;;;8.00;99.90;;;;;;4998162;28;19918;-87
2024/04/01 22:36:51;;;;;;;;;;;8.00;99.90;;;;;;4996052;28;19995;-88
2024/04/01 22:39:17;;;;;;;;;;;8.00;99.90;;;;;;4977564;28;19913;-87
2024/04/01 22:41:42;;;;;;;;;;;7.90;99.90;;;;;;4995606;28;19917;-88
2024/04/01 22:44:08;;;;;;;;;;;7.90;99.90;;;;;;4996074;28;19984;-89
2024/04/01 22:46:33;;;;;;;;;;;7.90;99.90;;;;;;4998464;28;20063;-89
2024/04/01 22:48:59;;;;;;;;;;;7.80;99.90;;;;;;4996327;28;19919;-87
2024/04/01 22:51:24;;;;;;;;;;;7.80;99.90;;;;;;4996386;28;19929;-87
2024/04/01 22:53:50;;;;;;;;;;;7.80;99.90;;;;;;4997986;28;19917;-87
2024/04/01 22:56:15;;;;;;;;;;;7.80;99.90;;;;;;4995865;28;19955;-88
2024/04/01 22:58:40;;;;;;;;;;;7.80;99.90;;;;;;4995874;28;19928;-88
2024/04/01 23:01:06;;;;;;;;;;;7.80;99.90;;;;;;4995186;28;20040;-87
2024/04/01 23:03:31;;;;;;;;;;;7.70;99.90;;;;;;4995577;28;20390;-88
2024/04/01 23:05:57;;;;;;;;;;;7.70;99.90;;;;;;4996116;28;19909;-88
2024/04/01 23:08:22;;;;;;;;;;;7.70;99.90;;;;;;4995955;28;19993;-88
2024/04/01 23:10:48;;;;;;;;;;;7.60;99.90;;;;;;4976609;28;19963;-87
2024/04/01 23:13:13;;;;;;;;;;;7.60;99.90;;;;;;4996484;28;21006;-87
2024/04/01 23:15:40;;;;;;;;;;;7.60;99.90;;;;;;4996892;28;19920;-88
2024/04/01 23:18:07;;;;;;;;;;;7.60;99.90;;;;;;4995902;28;19947;-88
2024/04/01 23:20:33;;;;;;;;;;;7.50;99.90;;;;;;4994577;28;19957;-87
2024/04/01 23:22:58;;;;;;;;;;;7.50;99.90;;;;;;4994127;28;20006;-87
2024/04/01 23:25:24;;;;;;;;;;;7.50;99.90;;;;;;4995883;28;20017;-87
2024/04/01 23:27:50;;;;;;;;;;;7.40;99.90;;;;;;4994807;28;19917;-88
2024/04/01 23:30:15;;;;;;;;;;;7.40;99.90;;;;;;4994491;28;20302;-88
2024/04/01 23:32:41;;;;;;;;;;;7.40;99.90;;;;;;4998760;28;19917;-87
2024/04/01 23:35:06;;;;;;;;;;;7.30;99.90;;;;;;4995980;28;19916;-88
2024/04/01 23:37:32;;;;;;;;;;;7.30;99.90;;;;;;4978926;28;19914;-87
2024/04/01 23:39:57;;;;;;;;;;;7.30;99.90;;;;;;4995799;28;19918;-86
2024/04/01 23:42:23;;;;;;;;;;;7.30;99.90;;;;;;4997136;28;21234;-87
2024/04/01 23:44:48;;;;;;;;;;;7.30;99.90;;;;;;4996179;28;19917;-87
2024/04/01 23:47:14;;;;;;;;;;;7.30;99.90;;;;;;4996767;28;19918;-87
2024/04/01 23:49:39;;;;;;;;;;;7.30;99.90;;;;;;4996226;28;19949;-86
2024/04/01 23:52:09;;;;;;;;;;;7.30;99.90;;;;;;4996998;28;19917;-86
2024/04/01 23:54:37;;;;;;;;;;;7.30;99.90;;;;;;4997194;28;19952;-87
2024/04/01 23:57:02;;;;;;;;;;;7.30;99.90;;;;;;4996754;28;20650;-87
2024/04/01 23:59:28;;;;;;;;;;;7.30;99.90;;;;;;4998547;28;19918;-87
